sensor_id;sensor_type;location;lat;lon;timestamp;P1;durP1;ratioP1;P2;durP2;ratioP2
53052;SDS011;38934;52.690;6.184;2024-01-25T00:01:11;22.67;;;4.78;;
53052;SDS011;38934;52.690;6.184;2024-01-25T00:03:37;26.17;;;5.28;;
53052;SDS011;38934;52.690;6.184;2024-01-25T00:06:04;32.90;;;5.25;;
53052;SDS011;38934;52.690;6.184;2024-01-25T00:08:31;25.45;;;4.97;;
53052;SDS011;38934;52.690;6.184;2024-01-25T00:10:56;26.95;;;5.10;;
53052;SDS011;38934;52.690;6.184;2024-01-25T00:13:22;25.70;;;5.03;;
53052;SDS011;38934;52.690;6.184;2024-01-25T00:15:47;31.77;;;5.10;;
53052;SDS011;38934;52.690;6.184;2024-01-25T00:18:13;30.17;;;5.85;;
53052;SDS011;38934;52.690;6.184;2024-01-25T00:20:39;31.88;;;5.65;;
53052;SDS011;38934;52.690;6.184;2024-01-25T00:23:06;25.33;;;5.22;;
53052;SDS011;38934;52.690;6.184;2024-01-25T00:25:31;31.80;;;5.75;;
53052;SDS011;38934;52.690;6.184;2024-01-25T00:27:57;26.35;;;4.80;;
53052;SDS011;38934;52.690;6.184;2024-01-25T00:30:23;25.45;;;5.70;;
53052;SDS011;38934;52.690;6.184;2024-01-25T00:32:48;34.60;;;5.65;;
53052;SDS011;38934;52.690;6.184;2024-01-25T00:35:14;28.13;;;5.50;;
53052;SDS011;38934;52.690;6.184;2024-01-25T00:37:41;28.05;;;5.47;;
53052;SDS011;38934;52.690;6.184;2024-01-25T00:40:07;30.60;;;5.43;;
53052;SDS011;38934;52.690;6.184;2024-01-25T00:42:34;29.25;;;6.43;;
53052;SDS011;38934;52.690;6.184;2024-01-25T00:45:05;22.75;;;4.95;;
53052;SDS011;38934;52.690;6.184;2024-01-25T00:47:32;32.13;;;5.45;;
53052;SDS011;38934;52.690;6.184;2024-01-25T00:49:57;42.90;;;6.97;;
53052;SDS011;38934;52.690;6.184;2024-01-25T00:52:23;30.92;;;6.38;;
53052;SDS011;38934;52.690;6.184;2024-01-25T00:54:49;26.65;;;5.47;;
53052;SDS011;38934;52.690;6.184;2024-01-25T00:57:15;40.03;;;6.00;;
53052;SDS011;38934;52.690;6.184;2024-01-25T00:59:41;36.28;;;5.75;;
53052;SDS011;38934;52.690;6.184;2024-01-25T01:02:07;32.72;;;5.70;;
53052;SDS011;38934;52.690;6.184;2024-01-25T01:04:37;25.58;;;5.22;;
53052;SDS011;38934;52.690;6.184;2024-01-25T01:07:03;32.33;;;5.85;;
53052;SDS011;38934;52.690;6.184;2024-01-25T01:09:29;30.15;;;5.63;;
53052;SDS011;38934;52.690;6.184;2024-01-25T01:11:54;30.98;;;6.10;;
53052;SDS011;38934;52.690;6.184;2024-01-25T01:14:20;30.98;;;5.10;;
53052;SDS011;38934;52.690;6.184;2024-01-25T01:16:46;38.33;;;6.55;;
53052;SDS011;38934;52.690;6.184;2024-01-25T01:19:11;28.48;;;5.65;;
53052;SDS011;38934;52.690;6.184;2024-01-25T01:21:38;25.23;;;5.25;;
53052;SDS011;38934;52.690;6.184;2024-01-25T01:24:06;26.27;;;5.78;;
53052;SDS011;38934;52.690;6.184;2024-01-25T01:26:31;26.35;;;5.63;;
53052;SDS011;38934;52.690;6.184;2024-01-25T01:28:57;27.20;;;4.70;;
53052;SDS011;38934;52.690;6.184;2024-01-25T01:31:23;34.45;;;5.40;;
53052;SDS011;38934;52.690;6.184;2024-01-25T01:33:48;36.88;;;6.25;;
53052;SDS011;38934;52.690;6.184;2024-01-25T01:36:14;30.60;;;5.97;;
53052;SDS011;38934;52.690;6.184;2024-01-25T01:38:40;33.90;;;5.72;;
53052;SDS011;38934;52.690;6.184;2024-01-25T01:41:05;34.83;;;5.93;;
53052;SDS011;38934;52.690;6.184;2024-01-25T01:43:31;29.17;;;6.38;;
53052;SDS011;38934;52.690;6.184;2024-01-25T01:45:58;26.65;;;5.55;;
53052;SDS011;38934;52.690;6.184;2024-01-25T01:48:30;31.63;;;5.50;;
53052;SDS011;38934;52.690;6.184;2024-01-25T01:50:56;24.25;;;4.60;;
53052;SDS011;38934;52.690;6.184;2024-01-25T01:53:22;28.55;;;5.30;;
53052;SDS011;38934;52.690;6.184;2024-01-25T01:55:47;35.28;;;6.03;;
53052;SDS011;38934;52.690;6.184;2024-01-25T01:58:13;28.27;;;5.35;;
53052;SDS011;38934;52.690;6.184;2024-01-25T02:00:39;30.50;;;4.93;;
53052;SDS011;38934;52.690;6.184;2024-01-25T02:03:07;35.10;;;5.50;;
53052;SDS011;38934;52.690;6.184;2024-01-25T02:05:32;28.55;;;6.47;;
53052;SDS011;38934;52.690;6.184;2024-01-25T02:07:58;35.83;;;6.03;;
53052;SDS011;38934;52.690;6.184;2024-01-25T02:10:23;26.02;;;5.43;;
53052;SDS011;38934;52.690;6.184;2024-01-25T02:12:49;31.88;;;5.70;;
53052;SDS011;38934;52.690;6.184;2024-01-25T02:15:14;31.73;;;5.32;;
53052;SDS011;38934;52.690;6.184;2024-01-25T02:17:40;33.00;;;5.32;;
53052;SDS011;38934;52.690;6.184;2024-01-25T02:20:06;32.30;;;6.00;;
53052;SDS011;38934;52.690;6.184;2024-01-25T02:22:32;38.45;;;6.25;;
53052;SDS011;38934;52.690;6.184;2024-01-25T02:24:58;26.35;;;4.80;;
53052;SDS011;38934;52.690;6.184;2024-01-25T02:27:23;38.97;;;5.00;;
53052;SDS011;38934;52.690;6.184;2024-01-25T02:29:49;29.05;;;5.63;;
53052;SDS011;38934;52.690;6.184;2024-01-25T02:32:14;32.45;;;5.88;;
53052;SDS011;38934;52.690;6.184;2024-01-25T02:34:40;35.58;;;5.47;;
53052;SDS011;38934;52.690;6.184;2024-01-25T02:37:06;47.78;;;6.45;;
53052;SDS011;38934;52.690;6.184;2024-01-25T02:39:31;35.90;;;6.40;;
53052;SDS011;38934;52.690;6.184;2024-01-25T02:41:57;36.33;;;6.13;;
53052;SDS011;38934;52.690;6.184;2024-01-25T02:44:22;32.75;;;6.50;;
53052;SDS011;38934;52.690;6.184;2024-01-25T02:46:48;35.97;;;5.28;;
53052;SDS011;38934;52.690;6.184;2024-01-25T02:49:14;37.38;;;5.35;;
53052;SDS011;38934;52.690;6.184;2024-01-25T02:51:39;35.88;;;5.20;;
53052;SDS011;38934;52.690;6.184;2024-01-25T02:54:05;30.88;;;5.80;;
53052;SDS011;38934;52.690;6.184;2024-01-25T02:56:30;44.45;;;6.85;;
53052;SDS011;38934;52.690;6.184;2024-01-25T02:58:59;37.88;;;5.97;;
53052;SDS011;38934;52.690;6.184;2024-01-25T03:01:26;27.58;;;5.07;;
53052;SDS011;38934;52.690;6.184;2024-01-25T03:03:52;30.75;;;6.63;;
53052;SDS011;38934;52.690;6.184;2024-01-25T03:06:18;33.63;;;6.60;;
53052;SDS011;38934;52.690;6.184;2024-01-25T03:08:44;28.48;;;5.85;;
53052;SDS011;38934;52.690;6.184;2024-01-25T03:11:09;34.15;;;6.18;;
53052;SDS011;38934;52.690;6.184;2024-01-25T03:13:35;27.20;;;5.03;;
53052;SDS011;38934;52.690;6.184;2024-01-25T03:16:00;24.45;;;5.45;;
53052;SDS011;38934;52.690;6.184;2024-01-25T03:18:26;27.40;;;5.97;;
53052;SDS011;38934;52.690;6.184;2024-01-25T03:20:52;33.03;;;6.45;;
53052;SDS011;38934;52.690;6.184;2024-01-25T03:23:17;38.88;;;7.07;;
53052;SDS011;38934;52.690;6.184;2024-01-25T03:25:43;39.53;;;6.60;;
53052;SDS011;38934;52.690;6.184;2024-01-25T03:28:08;31.73;;;6.55;;
53052;SDS011;38934;52.690;6.184;2024-01-25T03:30:36;31.05;;;5.28;;
53052;SDS011;38934;52.690;6.184;2024-01-25T03:33:01;35.40;;;5.97;;
53052;SDS011;38934;52.690;6.184;2024-01-25T03:35:27;31.90;;;5.88;;
53052;SDS011;38934;52.690;6.184;2024-01-25T03:37:53;39.70;;;5.65;;
53052;SDS011;38934;52.690;6.184;2024-01-25T03:40:18;29.55;;;6.63;;
53052;SDS011;38934;52.690;6.184;2024-01-25T03:42:44;35.78;;;6.95;;
53052;SDS011;38934;52.690;6.184;2024-01-25T03:45:09;29.80;;;6.15;;
53052;SDS011;38934;52.690;6.184;2024-01-25T03:47:35;25.85;;;4.93;;
53052;SDS011;38934;52.690;6.184;2024-01-25T03:50:00;29.65;;;5.60;;
53052;SDS011;38934;52.690;6.184;2024-01-25T03:52:26;31.70;;;5.30;;
53052;SDS011;38934;52.690;6.184;2024-01-25T03:54:55;28.00;;;5.43;;
53052;SDS011;38934;52.690;6.184;2024-01-25T03:57:20;33.90;;;6.72;;
53052;SDS011;38934;52.690;6.184;2024-01-25T03:59:46;32.28;;;5.90;;
53052;SDS011;38934;52.690;6.184;2024-01-25T04:02:12;34.42;;;5.80;;
53052;SDS011;38934;52.690;6.184;2024-01-25T04:04:37;29.75;;;5.28;;
53052;SDS011;38934;52.690;6.184;2024-01-25T04:07:03;41.20;;;7.18;;
53052;SDS011;38934;52.690;6.184;2024-01-25T04:09:28;29.95;;;5.10;;
53052;SDS011;38934;52.690;6.184;2024-01-25T04:11:55;33.75;;;6.07;;
53052;SDS011;38934;52.690;6.184;2024-01-25T04:14:21;32.33;;;6.28;;
53052;SDS011;38934;52.690;6.184;2024-01-25T04:16:46;31.63;;;5.00;;
53052;SDS011;38934;52.690;6.184;2024-01-25T04:19:12;33.83;;;5.93;;
53052;SDS011;38934;52.690;6.184;2024-01-25T04:21:38;39.50;;;6.18;;
53052;SDS011;38934;52.690;6.184;2024-01-25T04:24:04;36.88;;;6.80;;
53052;SDS011;38934;52.690;6.184;2024-01-25T04:26:29;36.50;;;5.97;;
53052;SDS011;38934;52.690;6.184;2024-01-25T04:28:55;29.55;;;6.25;;
53052;SDS011;38934;52.690;6.184;2024-01-25T04:31:21;27.58;;;5.70;;
53052;SDS011;38934;52.690;6.184;2024-01-25T04:33:46;33.20;;;5.68;;
53052;SDS011;38934;52.690;6.184;2024-01-25T04:36:12;30.08;;;5.40;;
53052;SDS011;38934;52.690;6.184;2024-01-25T04:38:38;29.27;;;5.43;;
53052;SDS011;38934;52.690;6.184;2024-01-25T04:41:03;25.88;;;5.22;;
53052;SDS011;38934;52.690;6.184;2024-01-25T04:43:33;35.85;;;6.07;;
53052;SDS011;38934;52.690;6.184;2024-01-25T04:46:02;39.08;;;5.70;;
53052;SDS011;38934;52.690;6.184;2024-01-25T04:48:28;34.95;;;5.82;;
53052;SDS011;38934;52.690;6.184;2024-01-25T04:50:55;31.63;;;4.88;;
53052;SDS011;38934;52.690;6.184;2024-01-25T04:53:24;31.42;;;5.15;;
53052;SDS011;38934;52.690;6.184;2024-01-25T04:55:50;35.55;;;7.00;;
53052;SDS011;38934;52.690;6.184;2024-01-25T04:58:16;31.00;;;5.50;;
53052;SDS011;38934;52.690;6.184;2024-01-25T05:00:41;28.52;;;5.22;;
53052;SDS011;38934;52.690;6.184;2024-01-25T05:03:07;34.90;;;5.38;;
53052;SDS011;38934;52.690;6.184;2024-01-25T05:05:32;31.60;;;7.28;;
53052;SDS011;38934;52.690;6.184;2024-01-25T05:07:58;33.38;;;5.80;;
53052;SDS011;38934;52.690;6.184;2024-01-25T05:10:24;26.98;;;5.13;;
53052;SDS011;38934;52.690;6.184;2024-01-25T05:12:50;29.30;;;4.80;;
53052;SDS011;38934;52.690;6.184;2024-01-25T05:15:16;31.38;;;6.47;;
53052;SDS011;38934;52.690;6.184;2024-01-25T05:17:42;26.55;;;5.07;;
53052;SDS011;38934;52.690;6.184;2024-01-25T05:20:07;30.33;;;5.28;;
53052;SDS011;38934;52.690;6.184;2024-01-25T05:22:34;33.25;;;6.70;;
53052;SDS011;38934;52.690;6.184;2024-01-25T05:25:05;27.45;;;4.75;;
53052;SDS011;38934;52.690;6.184;2024-01-25T05:27:31;22.63;;;4.88;;
53052;SDS011;38934;52.690;6.184;2024-01-25T05:29:56;26.88;;;4.70;;
53052;SDS011;38934;52.690;6.184;2024-01-25T05:32:22;25.10;;;4.93;;
53052;SDS011;38934;52.690;6.184;2024-01-25T05:34:48;30.48;;;5.60;;
53052;SDS011;38934;52.690;6.184;2024-01-25T05:37:13;33.90;;;6.18;;
53052;SDS011;38934;52.690;6.184;2024-01-25T05:39:39;23.13;;;4.28;;
53052;SDS011;38934;52.690;6.184;2024-01-25T05:42:04;22.30;;;4.38;;
53052;SDS011;38934;52.690;6.184;2024-01-25T05:44:30;23.00;;;4.97;;
53052;SDS011;38934;52.690;6.184;2024-01-25T05:46:55;32.42;;;4.82;;
53052;SDS011;38934;52.690;6.184;2024-01-25T05:49:21;24.88;;;5.22;;
53052;SDS011;38934;52.690;6.184;2024-01-25T05:51:47;34.30;;;6.82;;
53052;SDS011;38934;52.690;6.184;2024-01-25T05:54:12;29.13;;;6.28;;
53052;SDS011;38934;52.690;6.184;2024-01-25T05:56:38;27.75;;;5.65;;
53052;SDS011;38934;52.690;6.184;2024-01-25T05:59:03;35.08;;;5.15;;
53052;SDS011;38934;52.690;6.184;2024-01-25T06:01:29;28.67;;;5.35;;
53052;SDS011;38934;52.690;6.184;2024-01-25T06:03:55;28.45;;;5.18;;
53052;SDS011;38934;52.690;6.184;2024-01-25T06:06:20;33.63;;;6.53;;
53052;SDS011;38934;52.690;6.184;2024-01-25T06:08:46;31.23;;;5.82;;
53052;SDS011;38934;52.690;6.184;2024-01-25T06:11:11;30.70;;;5.57;;
53052;SDS011;38934;52.690;6.184;2024-01-25T06:13:37;27.70;;;5.30;;
53052;SDS011;38934;52.690;6.184;2024-01-25T06:16:03;34.13;;;6.03;;
53052;SDS011;38934;52.690;6.184;2024-01-25T06:18:28;30.75;;;5.25;;
53052;SDS011;38934;52.690;6.184;2024-01-25T06:20:54;37.15;;;6.20;;
53052;SDS011;38934;52.690;6.184;2024-01-25T06:23:20;27.77;;;6.78;;
53052;SDS011;38934;52.690;6.184;2024-01-25T06:25:45;35.33;;;6.22;;
53052;SDS011;38934;52.690;6.184;2024-01-25T06:28:11;27.27;;;5.85;;
53052;SDS011;38934;52.690;6.184;2024-01-25T06:30:36;30.10;;;5.32;;
53052;SDS011;38934;52.690;6.184;2024-01-25T06:33:02;23.45;;;5.13;;
53052;SDS011;38934;52.690;6.184;2024-01-25T06:35:28;30.85;;;6.68;;
53052;SDS011;38934;52.690;6.184;2024-01-25T06:37:53;27.95;;;5.95;;
53052;SDS011;38934;52.690;6.184;2024-01-25T06:40:19;26.67;;;6.35;;
53052;SDS011;38934;52.690;6.184;2024-01-25T06:42:45;35.78;;;6.18;;
53052;SDS011;38934;52.690;6.184;2024-01-25T06:45:10;30.17;;;6.32;;
53052;SDS011;38934;52.690;6.184;2024-01-25T06:47:36;32.50;;;6.18;;
53052;SDS011;38934;52.690;6.184;2024-01-25T06:50:01;31.85;;;6.25;;
53052;SDS011;38934;52.690;6.184;2024-01-25T06:52:27;25.67;;;5.25;;
53052;SDS011;38934;52.690;6.184;2024-01-25T06:54:53;25.70;;;5.93;;
53052;SDS011;38934;52.690;6.184;2024-01-25T06:57:19;32.42;;;5.55;;
53052;SDS011;38934;52.690;6.184;2024-01-25T06:59:44;28.58;;;5.85;;
53052;SDS011;38934;52.690;6.184;2024-01-25T07:02:10;31.17;;;6.30;;
53052;SDS011;38934;52.690;6.184;2024-01-25T07:04:36;32.70;;;7.20;;
53052;SDS011;38934;52.690;6.184;2024-01-25T07:07:03;27.98;;;6.00;;
53052;SDS011;38934;52.690;6.184;2024-01-25T07:09:29;35.28;;;6.85;;
53052;SDS011;38934;52.690;6.184;2024-01-25T07:11:54;33.30;;;6.30;;
53052;SDS011;38934;52.690;6.184;2024-01-25T07:14:20;27.27;;;6.10;;
53052;SDS011;38934;52.690;6.184;2024-01-25T07:16:45;32.92;;;5.72;;
53052;SDS011;38934;52.690;6.184;2024-01-25T07:19:11;37.83;;;6.47;;
53052;SDS011;38934;52.690;6.184;2024-01-25T07:21:36;32.05;;;6.53;;
53052;SDS011;38934;52.690;6.184;2024-01-25T07:24:02;28.38;;;6.28;;
53052;SDS011;38934;52.690;6.184;2024-01-25T07:26:31;34.83;;;6.10;;
53052;SDS011;38934;52.690;6.184;2024-01-25T07:28:57;31.15;;;7.65;;
53052;SDS011;38934;52.690;6.184;2024-01-25T07:31:26;37.42;;;6.50;;
53052;SDS011;38934;52.690;6.184;2024-01-25T07:33:52;40.92;;;8.00;;
53052;SDS011;38934;52.690;6.184;2024-01-25T07:36:18;31.98;;;7.05;;
53052;SDS011;38934;52.690;6.184;2024-01-25T07:38:45;44.25;;;7.18;;
53052;SDS011;38934;52.690;6.184;2024-01-25T07:41:12;27.48;;;6.43;;
53052;SDS011;38934;52.690;6.184;2024-01-25T07:43:38;34.28;;;7.22;;
53052;SDS011;38934;52.690;6.184;2024-01-25T07:46:04;28.50;;;6.63;;
53052;SDS011;38934;52.690;6.184;2024-01-25T07:48:29;38.70;;;6.72;;
53052;SDS011;38934;52.690;6.184;2024-01-25T07:50:55;32.05;;;6.05;;
53052;SDS011;38934;52.690;6.184;2024-01-25T07:53:21;24.67;;;5.82;;
53052;SDS011;38934;52.690;6.184;2024-01-25T07:55:47;32.92;;;6.32;;
53052;SDS011;38934;52.690;6.184;2024-01-25T07:58:14;33.28;;;6.68;;
53052;SDS011;38934;52.690;6.184;2024-01-25T08:00:40;26.80;;;6.43;;
53052;SDS011;38934;52.690;6.184;2024-01-25T08:03:05;32.63;;;7.28;;
53052;SDS011;38934;52.690;6.184;2024-01-25T08:05:31;25.92;;;6.80;;
53052;SDS011;38934;52.690;6.184;2024-01-25T08:07:57;30.50;;;7.53;;
53052;SDS011;38934;52.690;6.184;2024-01-25T08:10:22;34.70;;;7.80;;
53052;SDS011;38934;52.690;6.184;2024-01-25T08:12:48;29.42;;;6.38;;
53052;SDS011;38934;52.690;6.184;2024-01-25T08:15:13;27.42;;;6.05;;
53052;SDS011;38934;52.690;6.184;2024-01-25T08:17:39;29.45;;;7.32;;
53052;SDS011;38934;52.690;6.184;2024-01-25T08:20:05;26.35;;;6.20;;
53052;SDS011;38934;52.690;6.184;2024-01-25T08:22:31;27.67;;;6.30;;
53052;SDS011;38934;52.690;6.184;2024-01-25T08:24:57;36.47;;;7.00;;
53052;SDS011;38934;52.690;6.184;2024-01-25T08:27:23;27.40;;;6.40;;
53052;SDS011;38934;52.690;6.184;2024-01-25T08:29:49;30.85;;;7.57;;
53052;SDS011;38934;52.690;6.184;2024-01-25T08:32:15;25.65;;;6.35;;
53052;SDS011;38934;52.690;6.184;2024-01-25T08:34:40;28.52;;;7.28;;
53052;SDS011;38934;52.690;6.184;2024-01-25T08:37:06;33.58;;;6.78;;
53052;SDS011;38934;52.690;6.184;2024-01-25T08:39:32;33.33;;;7.50;;
53052;SDS011;38934;52.690;6.184;2024-01-25T08:41:58;33.45;;;7.47;;
53052;SDS011;38934;52.690;6.184;2024-01-25T08:44:27;31.27;;;7.00;;
53052;SDS011;38934;52.690;6.184;2024-01-25T08:46:52;29.27;;;7.07;;
53052;SDS011;38934;52.690;6.184;2024-01-25T08:49:18;30.38;;;6.85;;
53052;SDS011;38934;52.690;6.184;2024-01-25T08:51:43;28.17;;;6.55;;
53052;SDS011;38934;52.690;6.184;2024-01-25T08:54:09;30.38;;;6.88;;
53052;SDS011;38934;52.690;6.184;2024-01-25T08:56:35;39.67;;;8.57;;
53052;SDS011;38934;52.690;6.184;2024-01-25T08:59:00;32.55;;;5.97;;
53052;SDS011;38934;52.690;6.184;2024-01-25T09:01:26;33.05;;;7.45;;
53052;SDS011;38934;52.690;6.184;2024-01-25T09:03:52;24.83;;;6.28;;
53052;SDS011;38934;52.690;6.184;2024-01-25T09:06:17;31.75;;;7.13;;
53052;SDS011;38934;52.690;6.184;2024-01-25T09:08:43;30.27;;;6.88;;
53052;SDS011;38934;52.690;6.184;2024-01-25T09:11:09;37.35;;;6.88;;
53052;SDS011;38934;52.690;6.184;2024-01-25T09:13:35;33.28;;;7.28;;
53052;SDS011;38934;52.690;6.184;2024-01-25T09:16:00;30.98;;;6.13;;
53052;SDS011;38934;52.690;6.184;2024-01-25T09:18:26;31.05;;;6.68;;
53052;SDS011;38934;52.690;6.184;2024-01-25T09:20:51;32.13;;;6.72;;
53052;SDS011;38934;52.690;6.184;2024-01-25T09:23:17;32.67;;;7.15;;
53052;SDS011;38934;52.690;6.184;2024-01-25T09:25:43;27.33;;;6.90;;
53052;SDS011;38934;52.690;6.184;2024-01-25T09:28:15;33.53;;;7.18;;
53052;SDS011;38934;52.690;6.184;2024-01-25T09:30:42;31.25;;;7.65;;
53052;SDS011;38934;52.690;6.184;2024-01-25T09:33:07;24.92;;;6.90;;
53052;SDS011;38934;52.690;6.184;2024-01-25T09:35:33;28.23;;;6.80;;
53052;SDS011;38934;52.690;6.184;2024-01-25T09:37:59;28.05;;;6.40;;
53052;SDS011;38934;52.690;6.184;2024-01-25T09:40:25;32.67;;;6.93;;
53052;SDS011;38934;52.690;6.184;2024-01-25T09:42:51;31.30;;;7.15;;
53052;SDS011;38934;52.690;6.184;2024-01-25T09:45:17;40.90;;;6.65;;
53052;SDS011;38934;52.690;6.184;2024-01-25T09:47:44;32.22;;;7.15;;
53052;SDS011;38934;52.690;6.184;2024-01-25T09:50:13;29.80;;;6.85;;
53052;SDS011;38934;52.690;6.184;2024-01-25T09:52:39;32.65;;;6.75;;
53052;SDS011;38934;52.690;6.184;2024-01-25T09:55:08;30.08;;;6.07;;
53052;SDS011;38934;52.690;6.184;2024-01-25T09:57:39;30.88;;;6.43;;
53052;SDS011;38934;52.690;6.184;2024-01-25T10:00:10;30.85;;;7.55;;
53052;SDS011;38934;52.690;6.184;2024-01-25T10:02:37;21.30;;;5.88;;
53052;SDS011;38934;52.690;6.184;2024-01-25T10:05:03;34.67;;;8.05;;
53052;SDS011;38934;52.690;6.184;2024-01-25T10:07:39;23.00;;;6.45;;
53052;SDS011;38934;52.690;6.184;2024-01-25T10:10:07;27.27;;;7.28;;
53052;SDS011;38934;52.690;6.184;2024-01-25T10:12:34;33.42;;;7.13;;
53052;SDS011;38934;52.690;6.184;2024-01-25T10:15:00;32.00;;;7.53;;
53052;SDS011;38934;52.690;6.184;2024-01-25T10:17:27;33.83;;;7.88;;
53052;SDS011;38934;52.690;6.184;2024-01-25T10:19:53;31.50;;;7.43;;
53052;SDS011;38934;52.690;6.184;2024-01-25T10:22:19;32.55;;;7.47;;
53052;SDS011;38934;52.690;6.184;2024-01-25T10:24:45;37.67;;;8.50;;
53052;SDS011;38934;52.690;6.184;2024-01-25T10:27:11;30.98;;;8.10;;
53052;SDS011;38934;52.690;6.184;2024-01-25T10:29:38;29.13;;;7.22;;
53052;SDS011;38934;52.690;6.184;2024-01-25T10:32:03;30.67;;;8.13;;
53052;SDS011;38934;52.690;6.184;2024-01-25T10:34:32;31.10;;;8.52;;
53052;SDS011;38934;52.690;6.184;2024-01-25T10:37:01;29.80;;;7.40;;
53052;SDS011;38934;52.690;6.184;2024-01-25T10:39:30;31.80;;;7.35;;
53052;SDS011;38934;52.690;6.184;2024-01-25T10:41:56;26.83;;;7.20;;
53052;SDS011;38934;52.690;6.184;2024-01-25T10:44:24;40.20;;;8.38;;
53052;SDS011;38934;52.690;6.184;2024-01-25T10:46:50;29.33;;;8.13;;
53052;SDS011;38934;52.690;6.184;2024-01-25T10:49:16;29.98;;;8.10;;
53052;SDS011;38934;52.690;6.184;2024-01-25T10:51:43;34.90;;;8.23;;
53052;SDS011;38934;52.690;6.184;2024-01-25T10:54:13;42.75;;;8.68;;
53052;SDS011;38934;52.690;6.184;2024-01-25T10:56:43;28.98;;;7.95;;
53052;SDS011;38934;52.690;6.184;2024-01-25T10:59:11;36.83;;;8.07;;
53052;SDS011;38934;52.690;6.184;2024-01-25T11:01:36;33.78;;;8.35;;
53052;SDS011;38934;52.690;6.184;2024-01-25T11:04:02;31.65;;;8.18;;
53052;SDS011;38934;52.690;6.184;2024-01-25T11:06:36;28.88;;;8.20;;
53052;SDS011;38934;52.690;6.184;2024-01-25T11:09:05;35.85;;;7.63;;
53052;SDS011;38934;52.690;6.184;2024-01-25T11:11:32;34.83;;;7.65;;
53052;SDS011;38934;52.690;6.184;2024-01-25T11:13:58;36.00;;;8.73;;
53052;SDS011;38934;52.690;6.184;2024-01-25T11:16:30;34.17;;;8.90;;
53052;SDS011;38934;52.690;6.184;2024-01-25T11:18:59;35.40;;;9.32;;
53052;SDS011;38934;52.690;6.184;2024-01-25T11:21:49;38.63;;;8.38;;
53052;SDS011;38934;52.690;6.184;2024-01-25T11:24:15;34.42;;;8.15;;
53052;SDS011;38934;52.690;6.184;2024-01-25T11:26:45;33.47;;;7.72;;
53052;SDS011;38934;52.690;6.184;2024-01-25T11:29:18;36.38;;;7.88;;
53052;SDS011;38934;52.690;6.184;2024-01-25T11:31:47;38.25;;;8.35;;
53052;SDS011;38934;52.690;6.184;2024-01-25T11:34:15;33.00;;;8.27;;
53052;SDS011;38934;52.690;6.184;2024-01-25T11:36:43;32.70;;;7.97;;
53052;SDS011;38934;52.690;6.184;2024-01-25T11:39:09;39.42;;;7.70;;
53052;SDS011;38934;52.690;6.184;2024-01-25T11:41:36;34.03;;;9.15;;
53052;SDS011;38934;52.690;6.184;2024-01-25T11:44:02;35.08;;;8.20;;
53052;SDS011;38934;52.690;6.184;2024-01-25T11:46:28;33.55;;;8.63;;
53052;SDS011;38934;52.690;6.184;2024-01-25T11:48:58;33.80;;;8.38;;
53052;SDS011;38934;52.690;6.184;2024-01-25T11:51:24;38.13;;;8.48;;
53052;SDS011;38934;52.690;6.184;2024-01-25T11:53:50;37.22;;;8.40;;
53052;SDS011;38934;52.690;6.184;2024-01-25T11:56:49;35.00;;;8.82;;
53052;SDS011;38934;52.690;6.184;2024-01-25T11:59:08;30.55;;;8.48;;
53052;SDS011;38934;52.690;6.184;2024-01-25T12:01:35;29.13;;;7.00;;
53052;SDS011;38934;52.690;6.184;2024-01-25T12:04:00;30.63;;;7.43;;
53052;SDS011;38934;52.690;6.184;2024-01-25T12:06:26;32.83;;;7.90;;
53052;SDS011;38934;52.690;6.184;2024-01-25T12:08:52;36.90;;;8.35;;
53052;SDS011;38934;52.690;6.184;2024-01-25T12:11:17;30.20;;;8.00;;
53052;SDS011;38934;52.690;6.184;2024-01-25T12:13:44;30.45;;;6.78;;
53052;SDS011;38934;52.690;6.184;2024-01-25T12:16:10;28.38;;;8.02;;
53052;SDS011;38934;52.690;6.184;2024-01-25T12:18:37;30.05;;;7.00;;
53052;SDS011;38934;52.690;6.184;2024-01-25T12:21:03;33.33;;;7.78;;
53052;SDS011;38934;52.690;6.184;2024-01-25T12:23:39;26.83;;;7.93;;
53052;SDS011;38934;52.690;6.184;2024-01-25T12:26:09;30.50;;;7.45;;
53052;SDS011;38934;52.690;6.184;2024-01-25T12:28:35;35.13;;;8.55;;
53052;SDS011;38934;52.690;6.184;2024-01-25T12:31:02;30.13;;;8.20;;
53052;SDS011;38934;52.690;6.184;2024-01-25T12:33:28;31.75;;;7.20;;
53052;SDS011;38934;52.690;6.184;2024-01-25T12:35:54;24.60;;;7.47;;
53052;SDS011;38934;52.690;6.184;2024-01-25T12:38:23;37.40;;;8.05;;
53052;SDS011;38934;52.690;6.184;2024-01-25T12:40:49;32.90;;;7.10;;
53052;SDS011;38934;52.690;6.184;2024-01-25T12:43:15;28.90;;;6.93;;
53052;SDS011;38934;52.690;6.184;2024-01-25T12:45:41;24.75;;;7.13;;
53052;SDS011;38934;52.690;6.184;2024-01-25T12:48:07;28.45;;;7.20;;
53052;SDS011;38934;52.690;6.184;2024-01-25T12:50:34;34.63;;;6.85;;
53052;SDS011;38934;52.690;6.184;2024-01-25T12:53:00;27.80;;;7.32;;
53052;SDS011;38934;52.690;6.184;2024-01-25T12:55:27;30.02;;;7.10;;
53052;SDS011;38934;52.690;6.184;2024-01-25T12:57:54;27.50;;;6.97;;
53052;SDS011;38934;52.690;6.184;2024-01-25T13:00:20;27.55;;;7.10;;
53052;SDS011;38934;52.690;6.184;2024-01-25T13:02:46;29.17;;;7.18;;
53052;SDS011;38934;52.690;6.184;2024-01-25T13:05:13;27.00;;;7.60;;
53052;SDS011;38934;52.690;6.184;2024-01-25T13:07:39;32.72;;;7.18;;
53052;SDS011;38934;52.690;6.184;2024-01-25T13:10:05;30.42;;;7.55;;
53052;SDS011;38934;52.690;6.184;2024-01-25T13:12:31;33.53;;;7.15;;
53052;SDS011;38934;52.690;6.184;2024-01-25T13:14:56;35.08;;;6.78;;
53052;SDS011;38934;52.690;6.184;2024-01-25T13:17:22;26.25;;;6.68;;
53052;SDS011;38934;52.690;6.184;2024-01-25T13:19:49;30.75;;;6.85;;
53052;SDS011;38934;52.690;6.184;2024-01-25T13:22:14;32.33;;;6.47;;
53052;SDS011;38934;52.690;6.184;2024-01-25T13:24:42;30.80;;;6.78;;
53052;SDS011;38934;52.690;6.184;2024-01-25T13:27:08;24.67;;;6.28;;
53052;SDS011;38934;52.690;6.184;2024-01-25T13:29:34;28.30;;;6.43;;
53052;SDS011;38934;52.690;6.184;2024-01-25T13:31:59;33.38;;;7.15;;
53052;SDS011;38934;52.690;6.184;2024-01-25T13:34:25;30.30;;;6.53;;
53052;SDS011;38934;52.690;6.184;2024-01-25T13:36:51;31.33;;;6.93;;
53052;SDS011;38934;52.690;6.184;2024-01-25T13:39:16;19.67;;;6.20;;
53052;SDS011;38934;52.690;6.184;2024-01-25T13:41:42;28.90;;;6.13;;
53052;SDS011;38934;52.690;6.184;2024-01-25T13:44:08;27.95;;;6.55;;
53052;SDS011;38934;52.690;6.184;2024-01-25T13:46:33;26.20;;;5.72;;
53052;SDS011;38934;52.690;6.184;2024-01-25T13:48:59;27.02;;;5.72;;
53052;SDS011;38934;52.690;6.184;2024-01-25T13:51:24;32.15;;;7.18;;
53052;SDS011;38934;52.690;6.184;2024-01-25T13:53:50;25.77;;;6.10;;
53052;SDS011;38934;52.690;6.184;2024-01-25T13:56:15;30.92;;;6.63;;
53052;SDS011;38934;52.690;6.184;2024-01-25T13:58:41;26.15;;;6.05;;
53052;SDS011;38934;52.690;6.184;2024-01-25T14:01:07;27.85;;;5.88;;
53052;SDS011;38934;52.690;6.184;2024-01-25T14:03:33;28.08;;;6.63;;
53052;SDS011;38934;52.690;6.184;2024-01-25T14:05:59;26.92;;;6.30;;
53052;SDS011;38934;52.690;6.184;2024-01-25T14:08:29;27.38;;;6.25;;
53052;SDS011;38934;52.690;6.184;2024-01-25T14:10:55;24.75;;;6.78;;
53052;SDS011;38934;52.690;6.184;2024-01-25T14:13:20;28.05;;;6.53;;
53052;SDS011;38934;52.690;6.184;2024-01-25T14:15:46;29.10;;;6.00;;
53052;SDS011;38934;52.690;6.184;2024-01-25T14:18:12;27.65;;;6.18;;
53052;SDS011;38934;52.690;6.184;2024-01-25T14:20:37;29.90;;;7.18;;
53052;SDS011;38934;52.690;6.184;2024-01-25T14:23:03;32.88;;;7.03;;
53052;SDS011;38934;52.690;6.184;2024-01-25T14:25:29;23.65;;;6.00;;
53052;SDS011;38934;52.690;6.184;2024-01-25T14:27:54;30.52;;;5.60;;